sensor_id;sensor_type;location;lat;lon;timestamp;pressure;altitude;pressure_sealevel;temperature;humidity
23118;BME280;11728;50.624;6.014;2023-01-30T00:02:27;98799.47;;;3.14;100.00
23118;BME280;11728;50.624;6.014;2023-01-30T00:07:28;98783.91;;;3.20;100.00
23118;BME280;11728;50.624;6.014;2023-01-30T00:12:28;98763.88;;;3.17;100.00
23118;BME280;11728;50.624;6.014;2023-01-30T00:17:28;98753.44;;;3.17;100.00
23118;BME280;11728;50.624;6.014;2023-01-30T00:22:29;98752.59;;;3.21;100.00
23118;BME280;11728;50.624;6.014;2023-01-30T00:27:30;98752.59;;;3.21;100.00
23118;BME280;11728;50.624;6.014;2023-01-30T00:32:30;98732.63;;;3.20;100.00
23118;BME280;11728;50.624;6.014;2023-01-30T00:37:31;98704.75;;;3.18;100.00
23118;BME280;11728;50.624;6.014;2023-01-30T00:42:32;98712.63;;;3.21;100.00
23118;BME280;11728;50.624;6.014;2023-01-30T00:47:51;98722.19;;;3.22;100.00
23118;BME280;11728;50.624;6.014;2023-01-30T00:52:52;98731.75;;;3.21;100.00
23118;BME280;11728;50.624;6.014;2023-01-30T00:57:52;98714.38;;;3.23;100.00
23118;BME280;11728;50.624;6.014;2023-01-30T01:02:53;98697.88;;;3.24;100.00
23118;BME280;11728;50.624;6.014;2023-01-30T01:07:54;98686.66;;;3.30;100.00
23118;BME280;11728;50.624;6.014;2023-01-30T01:12:54;98680.53;;;3.29;100.00
23118;BME280;11728;50.624;6.014;2023-01-30T01:17:55;98676.22;;;3.30;100.00
23118;BME280;11728;50.624;6.014;2023-01-30T01:22:56;98703.16;;;3.27;100.00
23118;BME280;11728;50.624;6.014;2023-01-30T01:27:57;98701.34;;;3.25;100.00
23118;BME280;11728;50.624;6.014;2023-01-30T01:32:57;98682.22;;;3.24;100.00
23118;BME280;11728;50.624;6.014;2023-01-30T01:37:58;98683.97;;;3.25;100.00
23118;BME280;11728;50.624;6.014;2023-01-30T01:42:58;98686.59;;;3.27;100.00
23118;BME280;11728;50.624;6.014;2023-01-30T01:48:11;98703.16;;;3.27;100.00
23118;BME280;11728;50.624;6.014;2023-01-30T01:53:16;98703.03;;;3.21;100.00
23118;BME280;11728;50.624;6.014;2023-01-30T01:58:40;98705.66;;;3.21;100.00
23118;BME280;11728;50.624;6.014;2023-01-30T02:03:45;98696.13;;;3.23;100.00
23118;BME280;11728;50.624;6.014;2023-01-30T02:08:52;98676.16;;;3.25;100.00
23118;BME280;11728;50.624;6.014;2023-01-30T02:13:55;98686.66;;;3.31;100.00
23118;BME280;11728;50.624;6.014;2023-01-30T02:18:57;98685.84;;;3.35;100.00
23118;BME280;11728;50.624;6.014;2023-01-30T02:29:46;98665.03;;;3.43;100.00
23118;BME280;11728;50.624;6.014;2023-01-30T02:40:21;98642.44;;;3.46;100.00
23118;BME280;11728;50.624;6.014;2023-01-30T02:45:34;98618.13;;;3.49;100.00
23118;BME280;11728;50.624;6.014;2023-01-30T02:50:46;98622.53;;;3.53;100.00
23118;BME280;11728;50.624;6.014;2023-01-30T02:55:49;98625.94;;;3.47;100.00
23118;BME280;11728;50.624;6.014;2023-01-30T03:11:36;98599.94;;;3.59;100.00
23118;BME280;11728;50.624;6.014;2023-01-30T03:16:39;98593.06;;;3.64;100.00
23118;BME280;11728;50.624;6.014;2023-01-30T03:21:41;98572.22;;;3.70;100.00
23118;BME280;11728;50.624;6.014;2023-01-30T03:26:48;98555.69;;;3.73;100.00
23118;BME280;11728;50.624;6.014;2023-01-30T03:31:50;98553.06;;;3.71;100.00
23118;BME280;11728;50.624;6.014;2023-01-30T03:36:51;98543.50;;;3.72;100.00
23118;BME280;11728;50.624;6.014;2023-01-30T03:41:52;98531.38;;;3.78;100.00
23118;BME280;11728;50.624;6.014;2023-01-30T03:46:53;98541.81;;;3.78;100.00
23118;BME280;11728;50.624;6.014;2023-01-30T03:51:54;98541.81;;;3.78;100.00
23118;BME280;11728;50.624;6.014;2023-01-30T03:56:54;98557.56;;;3.90;100.00
23118;BME280;11728;50.624;6.014;2023-01-30T04:01:55;98543.66;;;3.91;100.00
23118;BME280;11728;50.624;6.014;2023-01-30T04:06:56;98536.66;;;3.90;100.00
23118;BME280;11728;50.624;6.014;2023-01-30T04:11:56;98535.81;;;3.89;100.00
23118;BME280;11728;50.624;6.014;2023-01-30T04:16:58;98531.47;;;3.93;100.00
23118;BME280;11728;50.624;6.014;2023-01-30T04:22:19;98545.41;;;3.95;100.00
23118;BME280;11728;50.624;6.014;2023-01-30T04:27:19;98530.63;;;3.95;100.00
23118;BME280;11728;50.624;6.014;2023-01-30T04:32:38;98525.41;;;3.97;100.00
23118;BME280;11728;50.624;6.014;2023-01-30T04:37:39;98521.97;;;4.01;100.00
23118;BME280;11728;50.624;6.014;2023-01-30T04:42:41;98531.53;;;4.05;100.00
23118;BME280;11728;50.624;6.014;2023-01-30T04:48:02;98522.00;;;4.10;100.00
23118;BME280;11728;50.624;6.014;2023-01-30T04:53:03;98512.44;;;4.10;100.00
23118;BME280;11728;50.624;6.014;2023-01-30T04:58:04;98521.13;;;4.11;100.00
23118;BME280;11728;50.624;6.014;2023-01-30T05:03:05;98507.22;;;4.15;100.00
23118;BME280;11728;50.624;6.014;2023-01-30T05:08:06;98502.84;;;4.09;100.00
23118;BME280;11728;50.624;6.014;2023-01-30T05:13:07;98491.50;;;4.06;100.00
23118;BME280;11728;50.624;6.014;2023-01-30T05:18:07;98475.78;;;4.03;100.00
23118;BME280;11728;50.624;6.014;2023-01-30T05:23:08;98482.75;;;3.98;100.00
23118;BME280;11728;50.624;6.014;2023-01-30T05:28:08;98488.81;;;3.98;100.00
23118;BME280;11728;50.624;6.014;2023-01-30T05:33:08;98489.72;;;3.99;100.00
23118;BME280;11728;50.624;6.014;2023-01-30T05:38:09;98485.34;;;3.99;100.00
23118;BME280;11728;50.624;6.014;2023-01-30T05:43:10;98498.41;;;3.99;100.00
23118;BME280;11728;50.624;6.014;2023-01-30T05:48:10;98482.75;;;3.98;100.00
23118;BME280;11728;50.624;6.014;2023-01-30T05:53:11;98487.09;;;3.99;100.00
23118;BME280;11728;50.624;6.014;2023-01-30T05:58:12;98496.69;;;4.00;100.00
23118;BME280;11728;50.624;6.014;2023-01-30T06:03:12;98497.59;;;4.03;100.00
23118;BME280;11728;50.624;6.014;2023-01-30T06:08:13;98486.28;;;4.06;100.00
23118;BME280;11728;50.624;6.014;2023-01-30T06:13:13;98487.16;;;4.08;100.00
23118;BME280;11728;50.624;6.014;2023-01-30T06:18:14;98495.91;;;4.11;100.00
23118;BME280;11728;50.624;6.014;2023-01-30T06:23:14;98491.59;;;4.19;100.00
23118;BME280;11728;50.624;6.014;2023-01-30T06:28:16;98479.34;;;4.17;100.00
23118;BME280;11728;50.624;6.014;2023-01-30T06:33:17;98488.97;;;4.19;100.00
23118;BME280;11728;50.624;6.014;2023-01-30T06:38:19;98509.88;;;4.22;100.00
23118;BME280;11728;50.624;6.014;2023-01-30T06:43:20;98507.28;;;4.27;100.00
23118;BME280;11728;50.624;6.014;2023-01-30T06:48:20;98503.84;;;4.31;100.00
23118;BME280;11728;50.624;6.014;2023-01-30T06:53:20;98507.34;;;4.36;100.00
23118;BME280;11728;50.624;6.014;2023-01-30T06:58:27;98497.75;;;4.41;100.00
23118;BME280;11728;50.624;6.014;2023-01-30T07:03:28;98516.97;;;4.47;100.00
23118;BME280;11728;50.624;6.014;2023-01-30T07:08:28;98514.34;;;4.49;100.00
23118;BME280;11728;50.624;6.014;2023-01-30T07:13:28;98531.81;;;4.50;100.00
23118;BME280;11728;50.624;6.014;2023-01-30T07:18:29;98517.88;;;4.51;100.00
23118;BME280;11728;50.624;6.014;2023-01-30T07:23:29;98525.72;;;4.52;100.00
23118;BME280;11728;50.624;6.014;2023-01-30T07:28:30;98523.09;;;4.53;100.00
23118;BME280;11728;50.624;6.014;2023-01-30T07:33:30;98540.53;;;4.54;100.00
23118;BME280;11728;50.624;6.014;2023-01-30T07:38:31;98532.75;;;4.60;100.00
23118;BME280;11728;50.624;6.014;2023-01-30T07:43:31;98528.38;;;4.62;100.00
23118;BME280;11728;50.624;6.014;2023-01-30T07:48:32;98519.69;;;4.66;100.00
23118;BME280;11728;50.624;6.014;2023-01-30T07:53:32;98551.06;;;4.72;100.00
23118;BME280;11728;50.624;6.014;2023-01-30T07:58:33;98547.63;;;4.78;100.00
23118;BME280;11728;50.624;6.014;2023-01-30T08:03:33;98554.63;;;4.86;100.00
23118;BME280;11728;50.624;6.014;2023-01-30T08:08:34;98566.88;;;5.02;100.00
23118;BME280;11728;50.624;6.014;2023-01-30T08:13:35;98557.34;;;5.21;100.00
23118;BME280;11728;50.624;6.014;2023-01-30T08:18:36;98563.47;;;5.33;100.00
23118;BME280;11728;50.624;6.014;2023-01-30T08:23:36;98570.47;;;5.43;100.00
23118;BME280;11728;50.624;6.014;2023-01-30T08:28:36;98573.13;;;5.55;100.00
23118;BME280;11728;50.624;6.014;2023-01-30T08:33:37;98563.50;;;5.64;100.00
23118;BME280;11728;50.624;6.014;2023-01-30T08:38:38;98565.25;;;5.73;100.00
23118;BME280;11728;50.624;6.014;2023-01-30T08:43:39;98557.44;;;5.80;100.00
23118;BME280;11728;50.624;6.014;2023-01-30T08:48:39;98543.47;;;5.92;100.00
23118;BME280;11728;50.624;6.014;2023-01-30T08:53:42;98576.66;;;5.97;100.00
23118;BME280;11728;50.624;6.014;2023-01-30T08:58:42;98581.00;;;6.03;100.00
23118;BME280;11728;50.624;6.014;2023-01-30T09:03:45;98573.16;;;6.25;100.00
23118;BME280;11728;50.624;6.014;2023-01-30T09:08:45;98576.63;;;6.27;100.00
23118;BME280;11728;50.624;6.014;2023-01-30T09:13:46;98581.00;;;6.31;100.00
23118;BME280;11728;50.624;6.014;2023-01-30T09:18:46;98574.84;;;6.30;100.00
23118;BME280;11728;50.624;6.014;2023-01-30T09:23:47;98563.53;;;6.22;100.00
23118;BME280;11728;50.624;6.014;2023-01-30T09:28:47;98572.28;;;6.11;100.00
23118;BME280;11728;50.624;6.014;2023-01-30T09:33:48;98595.00;;;5.99;100.00
23118;BME280;11728;50.624;6.014;2023-01-30T09:38:48;98603.75;;;6.01;100.00
23118;BME280;11728;50.624;6.014;2023-01-30T09:49:23;98609.84;;;5.98;100.00
23118;BME280;11728;50.624;6.014;2023-01-30T09:54:28;98635.19;;;6.12;100.00
23118;BME280;11728;50.624;6.014;2023-01-30T09:59:44;98643.03;;;6.54;100.00
23118;BME280;11728;50.624;6.014;2023-01-30T10:04:46;98644.78;;;6.48;100.00
23118;BME280;11728;50.624;6.014;2023-01-30T10:09:58;98622.88;;;6.68;100.00
23118;BME280;11728;50.624;6.014;2023-01-30T10:26:07;98609.63;;;8.43;100.00
23118;BME280;11728;50.624;6.014;2023-01-30T10:31:13;98616.94;;;8.02;100.00
23118;BME280;11728;50.624;6.014;2023-01-30T10:36:20;98622.94;;;8.25;100.00
23118;BME280;11728;50.624;6.014;2023-01-30T10:41:30;98634.75;;;7.63;100.00
23118;BME280;11728;50.624;6.014;2023-01-30T10:46:48;98630.34;;;7.63;100.00
23118;BME280;11728;50.624;6.014;2023-01-30T10:52:19;98627.06;;;10.96;97.67
23118;BME280;11728;50.624;6.014;2023-01-30T11:07:58;98596.66;;;14.45;71.87
23118;BME280;11728;50.624;6.014;2023-01-30T11:13:09;98612.31;;;12.78;69.11
23118;BME280;11728;50.624;6.014;2023-01-30T11:18:11;98623.16;;;10.20;76.39
23118;BME280;11728;50.624;6.014;2023-01-30T11:23:32;98626.44;;;9.11;80.59
23118;BME280;11728;50.624;6.014;2023-01-30T11:28:42;98639.44;;;8.40;82.99
23118;BME280;11728;50.624;6.014;2023-01-30T11:33:43;98632.72;;;8.02;84.23
23118;BME280;11728;50.624;6.014;2023-01-30T11:38:56;98632.91;;;7.75;85.46
23118;BME280;11728;50.624;6.014;2023-01-30T11:44:02;98614.53;;;7.72;85.37
23118;BME280;11728;50.624;6.014;2023-01-30T11:49:11;98631.09;;;7.82;84.47
23118;BME280;11728;50.624;6.014;2023-01-30T11:54:25;98626.66;;;7.90;84.69
23118;BME280;11728;50.624;6.014;2023-01-30T11:59:53;98625.88;;;7.80;84.24
23118;BME280;11728;50.624;6.014;2023-01-30T12:05:00;98637.31;;;7.70;84.63
23118;BME280;11728;50.624;6.014;2023-01-30T12:10:25;98641.72;;;7.65;85.08
23118;BME280;11728;50.624;6.014;2023-01-30T12:15:30;98647.06;;;7.54;85.05
23118;BME280;11728;50.624;6.014;2023-01-30T12:26:12;98636.59;;;7.42;85.35
23118;BME280;11728;50.624;6.014;2023-01-30T12:31:32;98642.78;;;7.36;86.15
23118;BME280;11728;50.624;6.014;2023-01-30T12:36:44;98621.78;;;7.32;85.78
23118;BME280;11728;50.624;6.014;2023-01-30T12:48:02;98631.38;;;7.39;86.79
23118;BME280;11728;50.624;6.014;2023-01-30T13:08:32;98648.13;;;7.12;86.17
23118;BME280;11728;50.624;6.014;2023-01-30T13:14:06;98649.91;;;7.07;86.88
23118;BME280;11728;50.624;6.014;2023-01-30T13:19:11;98652.50;;;7.06;86.79
23118;BME280;11728;50.624;6.014;2023-01-30T13:29:52;98661.28;;;6.99;87.65
23118;BME280;11728;50.624;6.014;2023-01-30T13:34:53;98669.16;;;7.03;87.89
23118;BME280;11728;50.624;6.014;2023-01-30T13:40:12;98661.25;;;7.08;87.68
23118;BME280;11728;50.624;6.014;2023-01-30T13:45:17;98675.25;;;7.07;87.40
23118;BME280;11728;50.624;6.014;2023-01-30T14:01:02;98712.00;;;7.16;87.27
23118;BME280;11728;50.624;6.014;2023-01-30T14:06:05;98711.13;;;7.09;86.80
23118;BME280;11728;50.624;6.014;2023-01-30T14:12:14;98706.78;;;7.10;86.56
23118;BME280;11728;50.624;6.014;2023-01-30T14:17:12;98712.88;;;7.16;85.98
23118;BME280;11728;50.624;6.014;2023-01-30T14:22:23;98723.38;;;7.16;85.32
23118;BME280;11728;50.624;6.014;2023-01-30T14:27:25;98728.59;;;7.27;85.74
23118;BME280;11728;50.624;6.014;2023-01-30T14:32:50;98741.44;;;7.98;83.72
23118;BME280;11728;50.624;6.014;2023-01-30T14:38:15;98741.56;;;7.71;83.22
23118;BME280;11728;50.624;6.014;2023-01-30T14:53:57;98757.41;;;7.63;84.15
23118;BME280;11728;50.624;6.014;2023-01-30T14:59:01;98780.22;;;7.34;84.02
23118;BME280;11728;50.624;6.014;2023-01-30T15:04:03;98804.78;;;7.24;83.30
23118;BME280;11728;50.624;6.014;2023-01-30T15:09:06;98807.41;;;7.16;82.60
23118;BME280;11728;50.624;6.014;2023-01-30T15:14:30;98823.19;;;7.10;81.99
23118;BME280;11728;50.624;6.014;2023-01-30T15:20:05;98840.69;;;7.10;82.06
23118;BME280;11728;50.624;6.014;2023-01-30T15:25:23;98847.69;;;7.11;81.85
23118;BME280;11728;50.624;6.014;2023-01-30T15:35:45;98866.03;;;6.84;82.32
23118;BME280;11728;50.624;6.014;2023-01-30T15:40:46;98875.66;;;6.72;82.96
23118;BME280;11728;50.624;6.014;2023-01-30T15:51:00;98874.78;;;6.61;83.44
23118;BME280;11728;50.624;6.014;2023-01-30T15:56:09;98877.38;;;6.58;83.35
23118;BME280;11728;50.624;6.014;2023-01-30T16:01:16;98886.97;;;6.54;83.72
23118;BME280;11728;50.624;6.014;2023-01-30T16:06:21;98898.34;;;6.50;83.64
23118;BME280;11728;50.624;6.014;2023-01-30T16:11:40;98896.59;;;6.45;83.83
23118;BME280;11728;50.624;6.014;2023-01-30T16:21:49;98920.13;;;6.28;84.10
23118;BME280;11728;50.624;6.014;2023-01-30T16:26:53;98930.59;;;6.22;84.84
23118;BME280;11728;50.624;6.014;2023-01-30T16:31:55;98945.44;;;6.22;85.22
23118;BME280;11728;50.624;6.014;2023-01-30T16:37:44;98950.72;;;6.26;85.23
23118;BME280;11728;50.624;6.014;2023-01-30T16:42:24;98951.59;;;6.28;85.62
23118;BME280;11728;50.624;6.014;2023-01-30T16:47:27;98962.06;;;6.25;86.05
23118;BME280;11728;50.624;6.014;2023-01-30T16:52:33;98955.97;;;6.26;86.21
23118;BME280;11728;50.624;6.014;2023-01-30T16:57:38;98966.41;;;6.22;86.62
23118;BME280;11728;50.624;6.014;2023-01-30T17:02:41;98976.03;;;6.21;86.13
23118;BME280;11728;50.624;6.014;2023-01-30T17:07:50;98982.16;;;6.20;86.45
23118;BME280;11728;50.624;6.014;2023-01-30T17:12:51;98980.38;;;6.15;86.18
23118;BME280;11728;50.624;6.014;2023-01-30T17:17:52;98992.59;;;6.11;86.31
23118;BME280;11728;50.624;6.014;2023-01-30T17:22:53;99003.91;;;6.06;86.29
23118;BME280;11728;50.624;6.014;2023-01-30T17:27:57;99010.00;;;6.02;86.58
23118;BME280;11728;50.624;6.014;2023-01-30T17:32:58;99021.34;;;6.00;86.54
23118;BME280;11728;50.624;6.014;2023-01-30T17:37:58;99021.31;;;5.97;86.71
23118;BME280;11728;50.624;6.014;2023-01-30T17:42:59;99029.16;;;5.91;86.67
23118;BME280;11728;50.624;6.014;2023-01-30T17:47:59;99041.31;;;5.83;86.43
23118;BME280;11728;50.624;6.014;2023-01-30T17:53:01;99047.34;;;5.76;86.37
23118;BME280;11728;50.624;6.014;2023-01-30T17:58:01;99050.78;;;5.70;86.30
23118;BME280;11728;50.624;6.014;2023-01-30T18:03:02;99055.13;;;5.64;85.89
23118;BME280;11728;50.624;6.014;2023-01-30T18:08:28;99054.16;;;5.56;86.43
23118;BME280;11728;50.624;6.014;2023-01-30T18:13:32;99068.06;;;5.52;86.68
23118;BME280;11728;50.624;6.014;2023-01-30T18:18:32;99076.84;;;5.52;86.65
23118;BME280;11728;50.624;6.014;2023-01-30T18:23:33;99078.50;;;5.44;86.75
23118;BME280;11728;50.624;6.014;2023-01-30T18:28:33;99085.44;;;5.41;87.09
23118;BME280;11728;50.624;6.014;2023-01-30T18:33:34;99095.94;;;5.44;87.18
23118;BME280;11728;50.624;6.014;2023-01-30T18:38:35;99102.00;;;5.40;87.30
23118;BME280;11728;50.624;6.014;2023-01-30T18:43:35;99112.50;;;5.40;87.54
23118;BME280;11728;50.624;6.014;2023-01-30T18:48:36;99119.44;;;5.38;87.62
23118;BME280;11728;50.624;6.014;2023-01-30T18:53:38;99114.16;;;5.35;88.09
23118;BME280;11728;50.624;6.014;2023-01-30T18:58:39;99120.25;;;5.31;88.14
23118;BME280;11728;50.624;6.014;2023-01-30T19:03:40;99117.53;;;5.24;88.32
23118;BME280;11728;50.624;6.014;2023-01-30T19:08:41;99125.44;;;5.28;88.55
23118;BME280;11728;50.624;6.014;2023-01-30T19:13:44;99122.06;;;5.36;88.74
23118;BME280;11728;50.624;6.014;2023-01-30T19:18:49;99123.81;;;5.39;88.60
23118;BME280;11728;50.624;6.014;2023-01-30T19:23:50;99123.81;;;5.39;88.83
23118;BME280;11728;50.624;6.014;2023-01-30T19:28:51;99129.94;;;5.39;89.18
23118;BME280;11728;50.624;6.014;2023-01-30T19:33:54;99141.31;;;5.41;89.61
23118;BME280;11728;50.624;6.014;2023-01-30T19:38:55;99139.59;;;5.45;89.64
23118;BME280;11728;50.624;6.014;2023-01-30T19:43:57;99151.84;;;5.46;89.70
23118;BME280;11728;50.624;6.014;2023-01-30T19:48:58;99144.03;;;5.49;89.86
23118;BME280;11728;50.624;6.014;2023-01-30T19:54:02;99150.13;;;5.51;89.90
23118;BME280;11728;50.624;6.014;2023-01-30T19:59:05;99153.66;;;5.53;89.73
23118;BME280;11728;50.624;6.014;2023-01-30T20:04:05;99160.66;;;5.54;89.38
23118;BME280;11728;50.624;6.014;2023-01-30T20:09:07;99167.59;;;5.52;89.87
23118;BME280;11728;50.624;6.014;2023-01-30T20:14:10;99171.94;;;5.50;89.63
23118;BME280;11728;50.624;6.014;2023-01-30T20:19:13;99171.03;;;5.45;89.95
23118;BME280;11728;50.624;6.014;2023-01-30T20:24:14;99183.19;;;5.41;90.40
23118;BME280;11728;50.624;6.014;2023-01-30T20:29:15;99186.69;;;5.40;90.41
23118;BME280;11728;50.624;6.014;2023-01-30T20:34:17;99180.59;;;5.41;90.49
23118;BME280;11728;50.624;6.014;2023-01-30T20:39:18;99178.81;;;5.40;90.60
23118;BME280;11728;50.624;6.014;2023-01-30T20:44:20;99183.19;;;5.40;90.84
23118;BME280;11728;50.624;6.014;2023-01-30T20:49:21;99185.81;;;5.40;91.22
23118;BME280;11728;50.624;6.014;2023-01-30T20:54:22;99195.44;;;5.41;91.03
23118;BME280;11728;50.624;6.014;2023-01-30T20:59:23;99184.97;;;5.41;91.25
23118;BME280;11728;50.624;6.014;2023-01-30T21:04:24;99197.09;;;5.36;90.99
23118;BME280;11728;50.624;6.014;2023-01-30T21:09:24;99207.56;;;5.33;91.05
23118;BME280;11728;50.624;6.014;2023-01-30T21:14:25;99214.44;;;5.28;91.29
23118;BME280;11728;50.624;6.014;2023-01-30T21:19:25;99214.44;;;5.25;91.12
23118;BME280;11728;50.624;6.014;2023-01-30T21:24:27;99223.06;;;5.18;91.44
23118;BME280;11728;50.624;6.014;2023-01-30T21:29:28;99209.06;;;5.16;91.37
23118;BME280;11728;50.624;6.014;2023-01-30T21:34:28;99212.53;;;5.12;91.46
23118;BME280;11728;50.624;6.014;2023-01-30T21:39:29;99220.25;;;5.06;91.47
23118;BME280;11728;50.624;6.014;2023-01-30T21:44:48;99226.34;;;5.02;91.60
23118;BME280;11728;50.624;6.014;2023-01-30T21:49:52;99234.97;;;4.98;92.10
23118;BME280;11728;50.624;6.014;2023-01-30T21:54:53;99227.97;;;4.94;92.11
23118;BME280;11728;50.624;6.014;2023-01-30T21:59:53;99227.91;;;4.91;92.01
23118;BME280;11728;50.624;6.014;2023-01-30T22:04:54;99229.66;;;4.92;92.45
23118;BME280;11728;50.624;6.014;2023-01-30T22:09:54;99239.19;;;4.86;92.44
23118;BME280;11728;50.624;6.014;2023-01-30T22:14:55;99245.22;;;4.83;92.28
23118;BME280;11728;50.624;6.014;2023-01-30T22:19:55;99246.97;;;4.81;92.52
23118;BME280;11728;50.624;6.014;2023-01-30T22:24:55;99248.59;;;4.76;92.53
23118;BME280;11728;50.624;6.014;2023-01-30T22:29:56;99257.28;;;4.72;92.90
23118;BME280;11728;50.624;6.014;2023-01-30T22:34:56;99260.72;;;4.70;92.88
23118;BME280;11728;50.624;6.014;2023-01-30T22:39:57;99268.50;;;4.65;93.02
23118;BME280;11728;50.624;6.014;2023-01-30T22:44:57;99261.50;;;4.63;93.10
23118;BME280;11728;50.624;6.014;2023-01-30T22:49:58;99255.38;;;4.62;93.55
23118;BME280;11728;50.624;6.014;2023-01-30T22:54:58;99250.88;;;4.53;93.42
23118;BME280;11728;50.624;6.014;2023-01-30T22:59:59;99259.56;;;4.53;93.69
23118;BME280;11728;50.624;6.014;2023-01-30T23:04:59;99248.88;;;4.38;94.14
23118;BME280;11728;50.624;6.014;2023-01-30T23:10:00;99258.31;;;4.32;94.46
23118;BME280;11728;50.624;6.014;2023-01-30T23:15:00;99246.16;;;4.32;94.35
23118;BME280;11728;50.624;6.014;2023-01-30T23:20:01;99243.31;;;4.19;94.85
23118;BME280;11728;50.624;6.014;2023-01-30T23:25:02;99239.56;;;4.03;95.19
23118;BME280;11728;50.624;6.014;2023-01-30T23:30:03;99241.81;;;3.84;95.50
23118;BME280;11728;50.624;6.014;2023-01-30T23:35:03;99235.34;;;3.66;95.74
23118;BME280;11728;50.624;6.014;2023-01-30T23:40:05;99241.19;;;3.53;96.19
23118;BME280;11728;50.624;6.014;2023-01-30T23:45:06;99237.56;;;3.46;96.92
23118;BME280;11728;50.624;6.014;2023-01-30T23:50:07;99239.16;;;3.40;97.78
23118;BME280;11728;50.624;6.014;2023-01-30T23:55:08;99244.66;;;3.53;97.70
